sensor_id;sensor_type;location;lat;lon;timestamp;noise_LAeq;noise_LA_min;noise_LA_max;noise_LA01;noise_LA95
46393;Laerm;32099;53.588;10.176;2022-11-15T00:01:18;43.43;38.08;48.09;;
46393;Laerm;32099;53.588;10.176;2022-11-15T00:03:44;43.82;39.64;50.35;;
46393;Laerm;32099;53.588;10.176;2022-11-15T00:06:09;43.16;39.45;59.97;;
46393;Laerm;32099;53.588;10.176;2022-11-15T00:08:35;43.83;39.93;48.66;;
46393;Laerm;32099;53.588;10.176;2022-11-15T00:11:02;44.42;40.44;52.33;;
46393;Laerm;32099;53.588;10.176;2022-11-15T00:13:28;45.07;40.50;52.26;;
46393;Laerm;32099;53.588;10.176;2022-11-15T00:16:00;44.00;39.30;49.08;;
46393;Laerm;32099;53.588;10.176;2022-11-15T00:18:26;42.51;38.67;46.68;;
46393;Laerm;32099;53.588;10.176;2022-11-15T00:20:51;43.52;39.45;51.03;;
46393;Laerm;32099;53.588;10.176;2022-11-15T00:23:16;44.84;40.38;50.30;;
46393;Laerm;32099;53.588;10.176;2022-11-15T00:25:41;43.09;37.39;49.82;;
46393;Laerm;32099;53.588;10.176;2022-11-15T00:28:07;40.39;37.28;46.70;;
46393;Laerm;32099;53.588;10.176;2022-11-15T00:30:32;40.57;36.71;46.92;;
46393;Laerm;32099;53.588;10.176;2022-11-15T00:33:05;41.46;36.71;49.30;;
46393;Laerm;32099;53.588;10.176;2022-11-15T00:35:32;41.10;37.16;48.90;;
46393;Laerm;32099;53.588;10.176;2022-11-15T00:37:58;43.93;39.53;48.73;;
46393;Laerm;32099;53.588;10.176;2022-11-15T00:40:24;44.60;41.52;53.45;;
46393;Laerm;32099;53.588;10.176;2022-11-15T00:42:49;43.15;38.53;48.30;;
46393;Laerm;32099;53.588;10.176;2022-11-15T00:45:14;40.99;36.71;46.64;;
46393;Laerm;32099;53.588;10.176;2022-11-15T00:47:40;43.72;39.78;50.18;;
46393;Laerm;32099;53.588;10.176;2022-11-15T00:50:05;43.64;38.74;52.38;;
46393;Laerm;32099;53.588;10.176;2022-11-15T00:52:30;41.87;38.48;46.52;;
46393;Laerm;32099;53.588;10.176;2022-11-15T00:54:56;41.92;38.19;48.91;;
46393;Laerm;32099;53.588;10.176;2022-11-15T00:57:21;43.13;38.75;54.18;;
46393;Laerm;32099;53.588;10.176;2022-11-15T00:59:46;43.07;39.68;48.00;;
46393;Laerm;32099;53.588;10.176;2022-11-15T01:02:11;41.94;38.13;46.33;;
46393;Laerm;32099;53.588;10.176;2022-11-15T01:04:37;42.36;37.24;56.47;;
46393;Laerm;32099;53.588;10.176;2022-11-15T01:07:02;41.09;37.39;47.66;;
46393;Laerm;32099;53.588;10.176;2022-11-15T01:09:27;41.40;37.68;45.81;;
46393;Laerm;32099;53.588;10.176;2022-11-15T01:11:53;41.40;37.54;47.14;;
46393;Laerm;32099;53.588;10.176;2022-11-15T01:14:18;41.91;37.78;46.97;;
46393;Laerm;32099;53.588;10.176;2022-11-15T01:16:44;39.91;35.91;44.83;;
46393;Laerm;32099;53.588;10.176;2022-11-15T01:19:09;39.34;34.89;46.29;;
46393;Laerm;32099;53.588;10.176;2022-11-15T01:21:34;39.75;35.55;57.12;;
46393;Laerm;32099;53.588;10.176;2022-11-15T01:23:59;41.53;37.52;47.17;;
46393;Laerm;32099;53.588;10.176;2022-11-15T01:26:25;43.05;37.97;47.46;;
46393;Laerm;32099;53.588;10.176;2022-11-15T01:28:50;43.35;39.49;46.72;;
46393;Laerm;32099;53.588;10.176;2022-11-15T01:31:18;46.39;38.04;63.61;;
46393;Laerm;32099;53.588;10.176;2022-11-15T01:33:44;40.54;36.70;44.43;;
46393;Laerm;32099;53.588;10.176;2022-11-15T01:36:13;40.58;36.96;45.64;;
46393;Laerm;32099;53.588;10.176;2022-11-15T01:38:39;41.07;37.48;45.03;;
46393;Laerm;32099;53.588;10.176;2022-11-15T01:41:04;40.61;37.15;45.41;;
46393;Laerm;32099;53.588;10.176;2022-11-15T01:43:33;40.78;37.25;50.40;;
46393;Laerm;32099;53.588;10.176;2022-11-15T01:46:12;40.23;36.35;46.51;;
46393;Laerm;32099;53.588;10.176;2022-11-15T01:48:43;40.18;35.70;48.56;;
46393;Laerm;32099;53.588;10.176;2022-11-15T01:51:11;40.93;37.07;47.68;;
46393;Laerm;32099;53.588;10.176;2022-11-15T01:53:41;41.00;37.43;47.24;;
46393;Laerm;32099;53.588;10.176;2022-11-15T01:56:14;40.75;37.32;45.68;;
46393;Laerm;32099;53.588;10.176;2022-11-15T01:58:41;40.61;36.24;45.90;;
46393;Laerm;32099;53.588;10.176;2022-11-15T02:01:07;39.94;36.44;46.92;;
46393;Laerm;32099;53.588;10.176;2022-11-15T02:03:43;40.09;37.07;43.71;;
46393;Laerm;32099;53.588;10.176;2022-11-15T02:06:11;40.31;36.77;47.64;;
46393;Laerm;32099;53.588;10.176;2022-11-15T02:08:36;40.07;36.28;52.10;;
46393;Laerm;32099;53.588;10.176;2022-11-15T02:11:06;38.27;34.90;51.39;;
46393;Laerm;32099;53.588;10.176;2022-11-15T02:13:32;39.65;35.81;49.22;;
46393;Laerm;32099;53.588;10.176;2022-11-15T02:16:13;40.20;37.32;43.48;;
46393;Laerm;32099;53.588;10.176;2022-11-15T02:18:51;40.56;37.08;47.24;;
46393;Laerm;32099;53.588;10.176;2022-11-15T02:27:21;40.45;36.75;45.81;;
46393;Laerm;32099;53.588;10.176;2022-11-15T02:30:16;39.86;36.69;43.65;;
46393;Laerm;32099;53.588;10.176;2022-11-15T02:32:50;39.34;36.61;42.23;;
46393;Laerm;32099;53.588;10.176;2022-11-15T02:35:59;39.43;35.84;47.45;;
46393;Laerm;32099;53.588;10.176;2022-11-15T02:41:11;40.82;37.08;47.37;;
46393;Laerm;32099;53.588;10.176;2022-11-15T02:43:53;40.15;36.95;47.40;;
46393;Laerm;32099;53.588;10.176;2022-11-15T02:46:53;40.70;37.28;50.29;;
46393;Laerm;32099;53.588;10.176;2022-11-15T02:49:40;39.52;36.30;45.17;;
46393;Laerm;32099;53.588;10.176;2022-11-15T02:52:07;40.52;36.69;48.53;;
46393;Laerm;32099;53.588;10.176;2022-11-15T02:54:33;40.71;37.42;46.11;;
46393;Laerm;32099;53.588;10.176;2022-11-15T02:57:02;40.82;36.68;48.31;;
46393;Laerm;32099;53.588;10.176;2022-11-15T02:59:47;41.31;37.11;49.13;;
46393;Laerm;32099;53.588;10.176;2022-11-15T03:05:04;40.15;37.09;49.57;;
46393;Laerm;32099;53.588;10.176;2022-11-15T03:10:13;39.73;35.93;50.96;;
46393;Laerm;32099;53.588;10.176;2022-11-15T03:12:42;39.98;36.73;52.98;;
46393;Laerm;32099;53.588;10.176;2022-11-15T03:15:21;40.20;36.92;50.05;;
46393;Laerm;32099;53.588;10.176;2022-11-15T03:17:52;39.59;36.49;47.79;;
46393;Laerm;32099;53.588;10.176;2022-11-15T03:20:20;39.58;36.34;48.30;;
46393;Laerm;32099;53.588;10.176;2022-11-15T03:22:47;39.22;36.13;47.72;;
46393;Laerm;32099;53.588;10.176;2022-11-15T03:25:19;38.70;35.45;46.37;;
46393;Laerm;32099;53.588;10.176;2022-11-15T03:27:52;39.24;36.88;43.18;;
46393;Laerm;32099;53.588;10.176;2022-11-15T03:30:18;40.06;36.62;52.37;;
46393;Laerm;32099;53.588;10.176;2022-11-15T03:32:48;39.19;35.94;46.23;;
46393;Laerm;32099;53.588;10.176;2022-11-15T03:35:21;41.12;37.72;50.18;;
46393;Laerm;32099;53.588;10.176;2022-11-15T03:37:54;41.66;38.77;50.10;;
46393;Laerm;32099;53.588;10.176;2022-11-15T03:40:29;41.43;38.02;49.88;;
46393;Laerm;32099;53.588;10.176;2022-11-15T03:43:23;42.46;38.56;53.88;;
46393;Laerm;32099;53.588;10.176;2022-11-15T03:45:55;42.22;38.53;51.32;;
46393;Laerm;32099;53.588;10.176;2022-11-15T03:48:25;41.85;38.09;49.51;;
46393;Laerm;32099;53.588;10.176;2022-11-15T03:50:52;49.25;38.50;70.00;;
46393;Laerm;32099;53.588;10.176;2022-11-15T03:53:18;54.61;38.84;76.07;;
46393;Laerm;32099;53.588;10.176;2022-11-15T03:55:43;41.60;38.48;48.08;;
46393;Laerm;32099;53.588;10.176;2022-11-15T03:58:09;41.67;38.64;46.08;;
46393;Laerm;32099;53.588;10.176;2022-11-15T04:00:34;42.35;38.83;49.77;;
46393;Laerm;32099;53.588;10.176;2022-11-15T04:02:59;43.02;39.45;49.35;;
46393;Laerm;32099;53.588;10.176;2022-11-15T04:05:25;43.37;39.10;52.23;;
46393;Laerm;32099;53.588;10.176;2022-11-15T04:07:50;43.12;39.73;52.14;;
46393;Laerm;32099;53.588;10.176;2022-11-15T04:10:15;43.95;40.57;48.44;;
46393;Laerm;32099;53.588;10.176;2022-11-15T04:12:43;43.32;39.86;50.46;;
46393;Laerm;32099;53.588;10.176;2022-11-15T04:15:13;43.50;40.18;52.84;;
46393;Laerm;32099;53.588;10.176;2022-11-15T04:17:42;43.13;40.23;50.46;;
46393;Laerm;32099;53.588;10.176;2022-11-15T04:20:15;43.78;40.41;49.12;;
46393;Laerm;32099;53.588;10.176;2022-11-15T04:23:01;44.12;40.23;53.24;;
46393;Laerm;32099;53.588;10.176;2022-11-15T04:25:45;43.56;40.21;48.85;;
46393;Laerm;32099;53.588;10.176;2022-11-15T04:28:14;51.20;41.37;69.63;;
46393;Laerm;32099;53.588;10.176;2022-11-15T04:30:39;44.82;40.73;59.78;;
46393;Laerm;32099;53.588;10.176;2022-11-15T04:33:04;44.17;41.04;47.94;;
46393;Laerm;32099;53.588;10.176;2022-11-15T04:35:30;44.37;40.60;51.92;;
46393;Laerm;32099;53.588;10.176;2022-11-15T04:37:56;44.08;40.86;47.05;;
46393;Laerm;32099;53.588;10.176;2022-11-15T04:40:22;44.50;40.94;64.36;;
46393;Laerm;32099;53.588;10.176;2022-11-15T04:42:47;47.70;41.93;63.11;;
46393;Laerm;32099;53.588;10.176;2022-11-15T04:45:12;45.65;41.80;61.48;;
46393;Laerm;32099;53.588;10.176;2022-11-15T04:47:38;45.64;41.98;51.80;;
46393;Laerm;32099;53.588;10.176;2022-11-15T04:50:03;52.10;42.73;72.63;;
46393;Laerm;32099;53.588;10.176;2022-11-15T04:52:29;45.27;42.19;50.19;;
46393;Laerm;32099;53.588;10.176;2022-11-15T04:54:54;45.17;42.18;49.04;;
46393;Laerm;32099;53.588;10.176;2022-11-15T04:57:20;49.78;41.47;69.21;;
46393;Laerm;32099;53.588;10.176;2022-11-15T04:59:46;45.04;40.86;51.57;;
46393;Laerm;32099;53.588;10.176;2022-11-15T05:02:11;50.97;41.91;71.16;;
46393;Laerm;32099;53.588;10.176;2022-11-15T05:04:36;51.06;42.82;68.06;;
46393;Laerm;32099;53.588;10.176;2022-11-15T05:07:02;45.88;41.60;53.85;;
46393;Laerm;32099;53.588;10.176;2022-11-15T05:09:29;49.85;42.62;68.03;;
46393;Laerm;32099;53.588;10.176;2022-11-15T05:11:54;46.93;43.37;51.63;;
46393;Laerm;32099;53.588;10.176;2022-11-15T05:14:19;47.13;43.69;58.34;;
46393;Laerm;32099;53.588;10.176;2022-11-15T05:16:45;49.93;43.56;65.49;;
46393;Laerm;32099;53.588;10.176;2022-11-15T05:19:10;48.37;43.38;62.49;;
46393;Laerm;32099;53.588;10.176;2022-11-15T05:21:36;46.80;43.90;51.52;;
46393;Laerm;32099;53.588;10.176;2022-11-15T05:24:02;46.64;43.43;51.36;;
46393;Laerm;32099;53.588;10.176;2022-11-15T05:26:28;46.66;43.10;52.39;;
46393;Laerm;32099;53.588;10.176;2022-11-15T05:28:54;47.79;43.90;55.02;;
46393;Laerm;32099;53.588;10.176;2022-11-15T05:31:21;47.37;43.56;59.04;;
46393;Laerm;32099;53.588;10.176;2022-11-15T05:33:46;50.79;43.85;70.01;;
46393;Laerm;32099;53.588;10.176;2022-11-15T05:38:58;49.92;43.49;67.28;;
46393;Laerm;32099;53.588;10.176;2022-11-15T05:41:32;49.10;43.65;66.57;;
46393;Laerm;32099;53.588;10.176;2022-11-15T05:44:00;49.35;43.50;67.35;;
46393;Laerm;32099;53.588;10.176;2022-11-15T05:46:26;46.99;43.27;56.98;;
46393;Laerm;32099;53.588;10.176;2022-11-15T05:48:53;46.88;43.98;57.39;;
46393;Laerm;32099;53.588;10.176;2022-11-15T05:51:19;50.06;44.12;68.15;;
46393;Laerm;32099;53.588;10.176;2022-11-15T05:53:46;51.20;44.24;66.41;;
46393;Laerm;32099;53.588;10.176;2022-11-15T05:56:12;53.55;43.77;69.09;;
46393;Laerm;32099;53.588;10.176;2022-11-15T05:58:38;45.89;42.71;50.70;;
46393;Laerm;32099;53.588;10.176;2022-11-15T06:01:04;49.12;42.89;67.39;;
46393;Laerm;32099;53.588;10.176;2022-11-15T06:03:30;46.13;42.98;51.88;;
46393;Laerm;32099;53.588;10.176;2022-11-15T06:05:56;48.89;43.14;58.68;;
46393;Laerm;32099;53.588;10.176;2022-11-15T06:08:22;52.47;43.74;73.32;;
46393;Laerm;32099;53.588;10.176;2022-11-15T06:10:47;52.28;43.59;69.74;;
46393;Laerm;32099;53.588;10.176;2022-11-15T06:13:12;48.05;44.63;58.06;;
46393;Laerm;32099;53.588;10.176;2022-11-15T06:15:37;50.88;44.07;69.15;;
46393;Laerm;32099;53.588;10.176;2022-11-15T06:18:03;50.35;43.89;67.61;;
46393;Laerm;32099;53.588;10.176;2022-11-15T06:20:29;50.24;44.34;67.15;;
46393;Laerm;32099;53.588;10.176;2022-11-15T06:23:02;50.04;44.49;68.61;;
46393;Laerm;32099;53.588;10.176;2022-11-15T06:25:28;50.89;44.56;68.27;;
46393;Laerm;32099;53.588;10.176;2022-11-15T06:27:55;47.39;44.51;52.18;;
46393;Laerm;32099;53.588;10.176;2022-11-15T06:30:22;52.46;44.89;67.76;;
46393;Laerm;32099;53.588;10.176;2022-11-15T06:32:47;52.78;45.12;69.77;;
46393;Laerm;32099;53.588;10.176;2022-11-15T06:35:13;50.40;44.94;65.43;;
46393;Laerm;32099;53.588;10.176;2022-11-15T06:37:39;53.71;46.29;71.29;;
46393;Laerm;32099;53.588;10.176;2022-11-15T06:40:06;54.78;46.48;72.42;;
46393;Laerm;32099;53.588;10.176;2022-11-15T06:42:32;51.12;45.69;66.21;;
46393;Laerm;32099;53.588;10.176;2022-11-15T06:44:57;50.92;46.45;65.17;;
46393;Laerm;32099;53.588;10.176;2022-11-15T06:47:22;53.40;47.06;69.72;;
46393;Laerm;32099;53.588;10.176;2022-11-15T06:49:48;52.57;46.90;67.13;;
46393;Laerm;32099;53.588;10.176;2022-11-15T06:52:13;55.51;47.29;71.13;;
46393;Laerm;32099;53.588;10.176;2022-11-15T06:54:38;51.91;44.90;68.10;;
46393;Laerm;32099;53.588;10.176;2022-11-15T06:57:04;48.60;46.02;51.72;;
46393;Laerm;32099;53.588;10.176;2022-11-15T06:59:29;53.98;45.66;68.96;;
46393;Laerm;32099;53.588;10.176;2022-11-15T07:01:54;50.00;45.49;64.11;;
46393;Laerm;32099;53.588;10.176;2022-11-15T07:04:20;48.55;45.44;52.51;;
46393;Laerm;32099;53.588;10.176;2022-11-15T07:06:48;52.98;45.31;68.25;;
46393;Laerm;32099;53.588;10.176;2022-11-15T07:09:13;51.30;46.20;68.11;;
46393;Laerm;32099;53.588;10.176;2022-11-15T07:11:39;51.22;45.24;66.17;;
46393;Laerm;32099;53.588;10.176;2022-11-15T07:14:04;49.21;46.14;53.81;;
46393;Laerm;32099;53.588;10.176;2022-11-15T07:16:29;50.64;45.38;71.04;;
46393;Laerm;32099;53.588;10.176;2022-11-15T07:18:54;53.43;45.64;71.41;;
46393;Laerm;32099;53.588;10.176;2022-11-15T07:21:20;53.71;46.89;69.35;;
46393;Laerm;32099;53.588;10.176;2022-11-15T07:23:45;57.08;46.11;76.41;;
46393;Laerm;32099;53.588;10.176;2022-11-15T07:26:10;50.49;45.69;66.04;;
46393;Laerm;32099;53.588;10.176;2022-11-15T07:28:36;50.60;45.03;67.60;;
46393;Laerm;32099;53.588;10.176;2022-11-15T07:31:03;53.72;46.25;67.67;;
46393;Laerm;32099;53.588;10.176;2022-11-15T07:33:28;53.76;46.57;71.54;;
46393;Laerm;32099;53.588;10.176;2022-11-15T07:35:58;49.41;45.96;55.33;;
46393;Laerm;32099;53.588;10.176;2022-11-15T07:38:23;54.28;46.12;71.08;;
46393;Laerm;32099;53.588;10.176;2022-11-15T07:40:56;53.61;45.94;70.25;;
46393;Laerm;32099;53.588;10.176;2022-11-15T07:43:21;49.03;45.91;63.08;;
46393;Laerm;32099;53.588;10.176;2022-11-15T07:45:46;48.56;45.54;55.75;;
46393;Laerm;32099;53.588;10.176;2022-11-15T07:48:12;51.51;45.35;68.21;;
46393;Laerm;32099;53.588;10.176;2022-11-15T07:50:40;50.73;44.85;68.97;;
46393;Laerm;32099;53.588;10.176;2022-11-15T07:53:08;53.21;45.92;66.83;;
46393;Laerm;32099;53.588;10.176;2022-11-15T07:55:33;53.24;45.73;70.52;;
46393;Laerm;32099;53.588;10.176;2022-11-15T07:58:07;49.03;44.87;69.18;;
46393;Laerm;32099;53.588;10.176;2022-11-15T08:00:32;47.85;44.97;63.93;;
46393;Laerm;32099;53.588;10.176;2022-11-15T08:03:16;50.14;45.05;66.24;;
46393;Laerm;32099;53.588;10.176;2022-11-15T08:05:43;52.82;44.77;71.92;;
46393;Laerm;32099;53.588;10.176;2022-11-15T08:08:14;48.65;45.33;63.54;;
46393;Laerm;32099;53.588;10.176;2022-11-15T08:10:39;50.33;45.26;68.67;;
46393;Laerm;32099;53.588;10.176;2022-11-15T08:13:08;51.09;44.61;71.06;;
46393;Laerm;32099;53.588;10.176;2022-11-15T08:15:34;50.39;44.66;68.09;;
46393;Laerm;32099;53.588;10.176;2022-11-15T08:18:08;51.16;44.95;68.72;;
46393;Laerm;32099;53.588;10.176;2022-11-15T08:20:33;47.50;44.66;53.84;;
46393;Laerm;32099;53.588;10.176;2022-11-15T08:23:01;47.70;44.32;53.34;;
46393;Laerm;32099;53.588;10.176;2022-11-15T08:25:29;53.23;45.13;69.92;;
46393;Laerm;32099;53.588;10.176;2022-11-15T08:28:00;51.40;44.51;69.91;;
46393;Laerm;32099;53.588;10.176;2022-11-15T08:30:26;47.85;44.55;57.87;;
46393;Laerm;32099;53.588;10.176;2022-11-15T08:32:52;47.87;43.79;66.43;;
46393;Laerm;32099;53.588;10.176;2022-11-15T08:35:19;47.58;43.43;60.43;;
46393;Laerm;32099;53.588;10.176;2022-11-15T08:37:45;48.32;45.25;60.27;;
46393;Laerm;32099;53.588;10.176;2022-11-15T08:40:10;47.88;44.21;59.83;;
46393;Laerm;32099;53.588;10.176;2022-11-15T08:42:36;49.11;43.99;67.10;;
46393;Laerm;32099;53.588;10.176;2022-11-15T08:45:01;53.61;44.34;72.23;;
46393;Laerm;32099;53.588;10.176;2022-11-15T08:47:27;49.99;45.62;64.00;;
46393;Laerm;32099;53.588;10.176;2022-11-15T08:49:52;52.78;45.45;72.78;;
46393;Laerm;32099;53.588;10.176;2022-11-15T08:52:18;50.73;44.59;66.83;;
46393;Laerm;32099;53.588;10.176;2022-11-15T08:54:43;50.75;44.46;68.83;;
46393;Laerm;32099;53.588;10.176;2022-11-15T08:57:08;53.45;45.68;69.44;;
46393;Laerm;32099;53.588;10.176;2022-11-15T08:59:35;48.32;45.20;52.54;;
46393;Laerm;32099;53.588;10.176;2022-11-15T09:02:00;51.87;46.38;66.43;;
46393;Laerm;32099;53.588;10.176;2022-11-15T09:04:25;53.87;45.82;70.38;;
46393;Laerm;32099;53.588;10.176;2022-11-15T09:06:51;54.25;45.51;69.17;;
46393;Laerm;32099;53.588;10.176;2022-11-15T09:09:16;50.76;45.57;61.53;;
46393;Laerm;32099;53.588;10.176;2022-11-15T09:11:41;76.64;47.79;96.74;;
46393;Laerm;32099;53.588;10.176;2022-11-15T09:14:06;69.98;49.35;87.10;;
46393;Laerm;32099;53.588;10.176;2022-11-15T09:16:32;61.25;46.43;80.46;;
46393;Laerm;32099;53.588;10.176;2022-11-15T09:18:57;49.01;45.89;64.12;;
46393;Laerm;32099;53.588;10.176;2022-11-15T09:21:22;54.52;45.57;69.95;;
46393;Laerm;32099;53.588;10.176;2022-11-15T09:23:50;51.05;45.55;64.23;;
46393;Laerm;32099;53.588;10.176;2022-11-15T09:26:17;55.06;46.47;68.45;;
46393;Laerm;32099;53.588;10.176;2022-11-15T09:28:43;52.42;46.59;66.58;;
46393;Laerm;32099;53.588;10.176;2022-11-15T09:31:08;52.31;46.45;69.83;;
46393;Laerm;32099;53.588;10.176;2022-11-15T09:33:35;52.77;45.71;70.68;;
46393;Laerm;32099;53.588;10.176;2022-11-15T09:36:02;49.11;44.77;62.64;;
46393;Laerm;32099;53.588;10.176;2022-11-15T09:38:28;50.72;46.27;65.44;;
46393;Laerm;32099;53.588;10.176;2022-11-15T09:41:13;48.70;45.60;53.49;;
46393;Laerm;32099;53.588;10.176;2022-11-15T09:43:47;50.16;45.65;62.24;;
46393;Laerm;32099;53.588;10.176;2022-11-15T09:46:25;51.41;45.42;68.47;;
46393;Laerm;32099;53.588;10.176;2022-11-15T09:48:55;53.68;45.61;70.62;;
46393;Laerm;32099;53.588;10.176;2022-11-15T09:51:28;54.47;44.27;70.67;;
46393;Laerm;32099;53.588;10.176;2022-11-15T09:53:59;49.36;45.96;58.31;;
46393;Laerm;32099;53.588;10.176;2022-11-15T09:56:27;51.97;46.44;68.31;;
46393;Laerm;32099;53.588;10.176;2022-11-15T09:59:22;51.85;44.38;70.63;;
46393;Laerm;32099;53.588;10.176;2022-11-15T10:01:54;48.16;44.03;55.28;;
46393;Laerm;32099;53.588;10.176;2022-11-15T10:04:23;53.24;45.01;69.74;;
46393;Laerm;32099;53.588;10.176;2022-11-15T10:06:58;51.62;45.58;69.37;;
46393;Laerm;32099;53.588;10.176;2022-11-15T10:09:47;48.12;44.62;63.61;;
46393;Laerm;32099;53.588;10.176;2022-11-15T10:12:17;55.73;44.22;74.07;;
46393;Laerm;32099;53.588;10.176;2022-11-15T10:14:43;51.79;44.77;66.13;;
46393;Laerm;32099;53.588;10.176;2022-11-15T10:17:22;53.44;44.62;70.73;;
46393;Laerm;32099;53.588;10.176;2022-11-15T10:25:09;50.02;44.59;66.37;;
46393;Laerm;32099;53.588;10.176;2022-11-15T10:27:39;57.02;45.55;74.68;;
46393;Laerm;32099;53.588;10.176;2022-11-15T10:30:11;52.41;45.87;69.31;;
46393;Laerm;32099;53.588;10.176;2022-11-15T10:32:37;55.91;45.57;72.24;;
46393;Laerm;32099;53.588;10.176;2022-11-15T10:35:23;54.18;44.86;71.82;;
46393;Laerm;32099;53.588;10.176;2022-11-15T10:37:49;53.20;46.12;68.83;;
46393;Laerm;32099;53.588;10.176;2022-11-15T10:42:42;52.46;44.06;69.41;;
46393;Laerm;32099;53.588;10.176;2022-11-15T10:45:26;55.39;45.06;71.45;;
46393;Laerm;32099;53.588;10.176;2022-11-15T10:47:53;53.86;45.09;69.71;;
46393;Laerm;32099;53.588;10.176;2022-11-15T10:50:30;51.76;44.63;68.38;;
46393;Laerm;32099;53.588;10.176;2022-11-15T10:52:57;49.12;44.83;64.03;;
46393;Laerm;32099;53.588;10.176;2022-11-15T10:55:31;53.29;44.10;69.89;;
46393;Laerm;32099;53.588;10.176;2022-11-15T10:58:32;57.45;45.05;72.26;;
46393;Laerm;32099;53.588;10.176;2022-11-15T11:01:14;55.16;45.92;72.21;;
46393;Laerm;32099;53.588;10.176;2022-11-15T11:03:41;49.50;45.28;70.27;;
46393;Laerm;32099;53.588;10.176;2022-11-15T11:06:10;56.05;45.37;74.63;;
46393;Laerm;32099;53.588;10.176;2022-11-15T11:08:36;49.28;45.91;60.96;;
46393;Laerm;32099;53.588;10.176;2022-11-15T11:11:03;57.24;45.00;70.90;;
46393;Laerm;32099;53.588;10.176;2022-11-15T11:13:35;52.75;45.24;82.80;;
46393;Laerm;32099;53.588;10.176;2022-11-15T11:16:19;52.06;46.34;67.33;;
46393;Laerm;32099;53.588;10.176;2022-11-15T11:21:51;54.74;44.22;83.21;;
46393;Laerm;32099;53.588;10.176;2022-11-15T11:24:43;55.27;43.78;70.82;;
46393;Laerm;32099;53.588;10.176;2022-11-15T11:37:49;54.71;44.88;70.55;;
46393;Laerm;32099;53.588;10.176;2022-11-15T11:48:40;57.73;44.25;77.37;;
46393;Laerm;32099;53.588;10.176;2022-11-15T11:51:13;47.57;43.86;54.13;;
46393;Laerm;32099;53.588;10.176;2022-11-15T11:53:47;47.23;43.15;57.58;;
46393;Laerm;32099;53.588;10.176;2022-11-15T11:56:26;54.36;43.92;72.25;;
46393;Laerm;32099;53.588;10.176;2022-11-15T11:58:55;55.51;43.28;74.87;;
46393;Laerm;32099;53.588;10.176;2022-11-15T12:01:29;49.43;43.60;65.83;;
46393;Laerm;32099;53.588;10.176;2022-11-15T12:04:04;51.45;43.99;68.99;;
46393;Laerm;32099;53.588;10.176;2022-11-15T12:06:37;51.32;43.66;69.00;;
46393;Laerm;32099;53.588;10.176;2022-11-15T12:09:14;53.01;43.79;71.70;;
46393;Laerm;32099;53.588;10.176;2022-11-15T12:11:56;55.55;43.55;77.42;;
46393;Laerm;32099;53.588;10.176;2022-11-15T12:14:33;53.18;43.45;70.47;;
46393;Laerm;32099;53.588;10.176;2022-11-15T12:17:01;52.51;43.23;71.38;;
46393;Laerm;32099;53.588;10.176;2022-11-15T12:19:28;55.76;43.59;73.42;;
46393;Laerm;32099;53.588;10.176;2022-11-15T12:22:04;48.14;44.11;57.89;;
46393;Laerm;32099;53.588;10.176;2022-11-15T12:25:03;48.15;44.80;57.26;;
46393;Laerm;32099;53.588;10.176;2022-11-15T12:27:38;51.38;43.84;68.17;;
46393;Laerm;32099;53.588;10.176;2022-11-15T12:30:16;54.21;43.57;70.07;;
46393;Laerm;32099;53.588;10.176;2022-11-15T12:32:54;53.30;43.99;69.53;;
46393;Laerm;32099;53.588;10.176;2022-11-15T12:35:42;53.02;43.00;72.55;;
46393;Laerm;32099;53.588;10.176;2022-11-15T12:38:12;54.33;42.85;71.76;;
46393;Laerm;32099;53.588;10.176;2022-11-15T12:41:13;54.26;43.07;72.68;;
46393;Laerm;32099;53.588;10.176;2022-11-15T12:43:40;53.26;44.09;70.28;;
46393;Laerm;32099;53.588;10.176;2022-11-15T12:49:08;46.65;42.69;52.99;;
46393;Laerm;32099;53.588;10.176;2022-11-15T13:00:05;56.35;43.28;75.58;;
46393;Laerm;32099;53.588;10.176;2022-11-15T13:02:46;51.95;42.53;72.30;;
46393;Laerm;32099;53.588;10.176;2022-11-15T13:20:52;53.74;42.27;70.33;;
46393;Laerm;32099;53.588;10.176;2022-11-15T13:23:17;56.65;42.12;77.99;;
46393;Laerm;32099;53.588;10.176;2022-11-15T13:26:12;54.15;42.61;73.94;;
46393;Laerm;32099;53.588;10.176;2022-11-15T13:28:39;53.07;43.05;72.15;;
46393;Laerm;32099;53.588;10.176;2022-11-15T13:31:21;55.77;43.31;73.27;;
46393;Laerm;32099;53.588;10.176;2022-11-15T13:33:48;46.07;42.44;49.96;;
46393;Laerm;32099;53.588;10.176;2022-11-15T13:38:57;49.52;42.93;64.98;;
46393;Laerm;32099;53.588;10.176;2022-11-15T13:41:28;52.58;42.28;66.91;;
46393;Laerm;32099;53.588;10.176;2022-11-15T13:43:55;45.88;42.31;51.85;;
46393;Laerm;32099;53.588;10.176;2022-11-15T13:46:31;51.85;42.18;70.47;;
46393;Laerm;32099;53.588;10.176;2022-11-15T13:49:02;51.46;42.76;70.34;;
46393;Laerm;32099;53.588;10.176;2022-11-15T13:51:30;46.54;42.82;54.19;;
46393;Laerm;32099;53.588;10.176;2022-11-15T13:54:29;50.55;41.88;68.16;;
46393;Laerm;32099;53.588;10.176;2022-11-15T13:56:59;51.54;41.86;71.72;;
46393;Laerm;32099;53.588;10.176;2022-11-15T13:59:29;45.78;42.36;57.67;;
46393;Laerm;32099;53.588;10.176;2022-11-15T14:01:58;53.74;42.96;69.99;;
46393;Laerm;32099;53.588;10.176;2022-11-15T14:04:27;54.54;44.12;70.19;;
46393;Laerm;32099;53.588;10.176;2022-11-15T14:06:57;46.35;43.27;53.87;;
46393;Laerm;32099;53.588;10.176;2022-11-15T14:09:30;50.33;43.00;68.24;;
46393;Laerm;32099;53.588;10.176;2022-11-15T14:11:58;46.88;43.04;57.67;;
46393;Laerm;32099;53.588;10.176;2022-11-15T14:14:26;54.42;43.81;70.36;;
46393;Laerm;32099;53.588;10.176;2022-11-15T14:16:59;50.95;43.55;69.15;;
46393;Laerm;32099;53.588;10.176;2022-11-15T14:22:21;51.10;43.59;65.26;;
46393;Laerm;32099;53.588;10.176;2022-11-15T14:27:31;54.38;43.07;72.73;;
46393;Laerm;32099;53.588;10.176;2022-11-15T14:29:56;50.76;42.55;69.42;;
46393;Laerm;32099;53.588;10.176;2022-11-15T14:32:24;53.43;41.72;72.36;;
46393;Laerm;32099;53.588;10.176;2022-11-15T14:37:31;50.13;42.20;68.24;;
46393;Laerm;32099;53.588;10.176;2022-11-15T14:39:59;52.21;42.53;68.45;;
46393;Laerm;32099;53.588;10.176;2022-11-15T14:42:24;57.57;42.84;71.82;;
46393;Laerm;32099;53.588;10.176;2022-11-15T14:44:50;54.52;42.70;72.91;;
46393;Laerm;32099;53.588;10.176;2022-11-15T14:47:16;48.12;42.40;62.96;;
46393;Laerm;32099;53.588;10.176;2022-11-15T14:49:42;46.33;42.67;59.36;;
46393;Laerm;32099;53.588;10.176;2022-11-15T14:52:24;47.51;43.29;61.89;;
46393;Laerm;32099;53.588;10.176;2022-11-15T14:54:50;56.56;43.88;72.06;;
46393;Laerm;32099;53.588;10.176;2022-11-15T14:57:15;55.56;44.37;70.30;;
46393;Laerm;32099;53.588;10.176;2022-11-15T14:59:40;54.41;43.33;67.98;;
46393;Laerm;32099;53.588;10.176;2022-11-15T15:04:42;52.29;44.05;67.25;;
46393;Laerm;32099;53.588;10.176;2022-11-15T15:07:08;47.32;43.94;58.72;;
46393;Laerm;32099;53.588;10.176;2022-11-15T15:09:33;56.22;44.25;72.62;;
46393;Laerm;32099;53.588;10.176;2022-11-15T15:11:58;53.40;42.91;69.28;;